Ext Medina, Puerto Rico
Current Conditions -  °F | °C
As of 5:50 PM on Saturday 25 Oct 2014 (Local Time) from TJBQ Reporting Station
Scattered Clouds Scattered Clouds  
Wind Chill: 82°   Ceiling: Unl
Heat Index: 89°   Visibility: 10mi
Dew Point: 75°   Wind: 5mph
Humidity: 79%   Direction: 30°NNE
Pressure: 29.85"   Gusts: NA
Location:  18.4951°N, 67.0273°W
Report Text: TJBQ 252150Z 03004KT 10SM SCT044 28/24 A2985 RMK RWY08 - ATIS Z
Loading
Personal Weather Stations






























Interactive Weather Map
Tropical Storm Tracking
New forecast layout! Learn more

10-Day Weather Forecast

Advertisements
Track Severe Weather on mobile